Terminal Aerodrome Forecast
Issued by NWS

Home | Current Version | Previous Version | Text Only | Print | Product List | Glossary On
Versions: 1 2 3 4 5 6 7 8 9 10 11 12 13 14 15 16
000
FTUS45 KGJT 260254 AAA
TAFASE
TAF AMD
KASE 260254Z 2603/2624 18012KT P6SM VCTS SCT050 BKN090CB
     FM260500 19005KT P6SM VCSH BKN045
     FM260900 18005KT P6SM SCT050 BKN080
     FM262000 23010G18KT P6SM SCT140=

USA.gov is the U.S. government's official web portal to all federal, state and local government web resources and services.